Jolyn — PJWG — position and weather

sailwx.info

Track history (hours):
 
Tides and Currents Weather Stations Pressure Air Temp Water Temp Dewpoint Dewpoint Depression Visibility Wind Speed Wind Dir Waves Ship Positions

Jolyn

Last reported at 2016-May-25 17:33 UTC. Time now 2016-May-30 04:57 UTC.
Position N 55°54' E 015°07'.

Length 89 m; draft 3.8 m.

Type: Cargo ship. MMSI: 306813000.

Date/timePositionNaut miles runAvg speedWind from/ knotsBaromVisibWave heightAir tempDewpointWater temp
2016-May-25 17:33N 55°54' E 015°07'1211.1
2016-May-25 16:30N 55°56' E 014°47'9 6.8
2016-May-25 15:11N 56°02' E 014°35'0 0.1
2016-May-25 14:33N 56°02' E 014°35'0 0.0
2016-May-25 13:27N 56°02' E 014°35'0 0.0
2016-May-25 11:27N 56°02' E 014°35'0 0.0
2016-May-25 10:33N 56°02' E 014°35'0 0.0
2016-May-25 09:33N 56°02' E 014°35'0 0.0
2016-May-25 08:30N 56°02' E 014°35'0 0.0
2016-May-25 07:27N 56°02' E 014°35'0 0.0
2016-May-25 06:21N 56°02' E 014°35'0 0.0
2016-May-25 05:27N 56°02' E 014°35'4 4.0
2016-May-25 04:33N 55°58' E 014°35'6 6.2
2016-May-25 03:33N 55°53' E 014°40'6 6.4
2016-May-25 02:33N 55°46' E 014°39'7 6.9
2016-May-25 01:33N 55°40' E 014°39'7 6.7
2016-May-25 00:33N 55°33' E 014°39'7 6.9
2016-May-24 23:33N 55°26' E 014°38'7 6.8
2016-May-24 22:33N 55°20' E 014°32'7 6.9
2016-May-24 21:33N 55°15' E 014°25'7 7.0
2016-May-24 20:33N 55°09' E 014°17'7 6.8
2016-May-24 19:33N 55°03' E 014°11'7 7.1
2016-May-24 18:33N 54°57' E 014°05'10 9.7
2016-May-24 17:33N 54°49' E 013°56'1010.2
2016-May-24 16:33N 54°39' E 013°57'1110.9
2016-May-24 15:33N 54°28' E 014°01'2210.6
2016-May-24 13:29N 54°08' E 014°15'1010.7
2016-May-24 12:33N 53°58' E 014°16'8 7.9
2016-May-24 11:34N 53°50' E 014°18'1010.4
2016-May-24 10:33N 53°42' E 014°29'10 9.9
2016-May-24 09:33N 53°33' E 014°37'7 3.5
2016-May-24 07:32N 53°26' E 014°35'0 0.0
2016-May-24 06:32N 53°26' E 014°35'0 0.0
2016-May-24 05:32N 53°26' E 014°35'0 0.0
2016-May-24 04:32N 53°26' E 014°35'0 0.0
2016-May-24 03:32N 53°26' E 014°35'0 0.0
2016-May-24 02:32N 53°26' E 014°35'0 0.0
2016-May-24 01:32N 53°26' E 014°35'0 0.0
2016-May-24 00:32N 53°26' E 014°35'0 0.0
2016-May-23 23:32N 53°26' E 014°35'0 0.0
2016-May-23 22:32N 53°26' E 014°35'0 0.0
2016-May-23 21:32N 53°26' E 014°35'0 0.0
2016-May-23 20:32N 53°26' E 014°35'0 0.0
2016-May-23 19:32N 53°26' E 014°35'0 0.0
2016-May-23 18:32N 53°26' E 014°35'0 0.0
2016-May-23 17:32N 53°26' E 014°35'0 0.0
2016-May-23 16:32N 53°26' E 014°35'1 0.9
2016-May-23 15:33N 53°27' E 014°36'8 8.1
2016-May-23 14:33N 53°35' E 014°36'10 9.6
2016-May-23 13:33N 53°43' E 014°27'10 9.7
2016-May-23 12:33N 53°51' E 014°17'8 8.0
2016-May-23 11:33N 53°59' E 014°15'66 9.1
2016-May-23 04:22N 54°42' E 012°51'1110.1
2016-May-23 03:15N 54°37' E 012°33'710.0
2016-May-23 02:33N 54°33' E 012°23'10 9.6
2016-May-23 01:33N 54°26' E 012°12'1010.0
2016-May-23 00:33N 54°25' E 011°55'1010.0
2016-May-22 23:33N 54°27' E 011°38'10 9.9
2016-May-22 22:33N 54°31' E 011°23'10 9.9
2016-May-22 21:33N 54°35' E 011°07'1010.4
2016-May-22 20:33N 54°33' E 010°49'1110.9
2016-May-22 19:33N 54°31' E 010°30'1010.3
2016-May-22 18:33N 54°27' E 010°15'6 6.0
2016-May-22 17:33N 54°22' E 010°09'7 6.8
2016-May-22 16:33N 54°20' E 009°57'22 7.5
2016-May-22 13:33N 54°09' E 009°23'8 8.1
2016-May-22 12:34N 54°02' E 009°18'6 6.0
2016-May-22 11:33N 53°57' E 009°14'2 2.5
2016-May-22 10:34N 53°55' E 009°11'2 1.9
2016-May-22 09:33N 53°54' E 009°08'8 8.4
2016-May-22 08:33N 53°51' E 008°55'8 8.1
2016-May-22 07:33N 53°53' E 008°42'8 8.1
2016-May-22 06:34N 53°58' E 008°31'8 8.3
2016-May-22 05:33N 53°59' E 008°17'1010.2
2016-May-22 04:33N 53°58' E 008°00'9 9.1
2016-May-22 03:33N 53°56' E 007°45'9 8.6
2016-May-22 02:33N 53°54' E 007°31'8 8.4
2016-May-22 01:33N 53°52' E 007°17'8 8.5
2016-May-22 00:33N 53°50' E 007°03'9 8.8
2016-May-21 23:33N 53°48' E 006°49'9 9.3
2016-May-21 22:33N 53°45' E 006°33'10 9.7
2016-May-21 21:33N 53°43' E 006°17'1010.4
2016-May-21 20:33N 53°40' E 006°01'1010.4
2016-May-21 19:33N 53°37' E 005°44'1010.4
2016-May-21 18:33N 53°34' E 005°27'1111.1
2016-May-21 17:32N 53°30' E 005°09'3411.1
2016-May-21 14:31N 53°07' E 004°29'1110.8
2016-May-21 13:32N 52°57' E 004°21'18 8.8
2016-May-21 11:29N 52°40' E 004°13'9 9.9
2016-May-21 10:33N 52°33' E 004°23'9 8.9
2016-May-21 09:33N 52°28' E 004°35'1 0.5
2016-May-21 08:31N 52°28' E 004°36'0 0.0
2016-May-21 07:31N 52°28' E 004°36'0 0.0
2016-May-21 06:31N 52°28' E 004°36'0 0.0
2016-May-21 05:31N 52°28' E 004°36'0 0.0
2016-May-21 04:31N 52°28' E 004°36'0 0.0
2016-May-21 03:31N 52°28' E 004°36'0 0.0
2016-May-21 02:31N 52°28' E 004°36'0 0.0
2016-May-21 01:31N 52°28' E 004°36'0 0.0
2016-May-20 23:31N 52°28' E 004°36'0 0.0
2016-May-20 21:31N 52°28' E 004°36'0 0.0
2016-May-20 20:31N 52°28' E 004°36'0 0.0
2016-May-20 19:31N 52°28' E 004°36'0 0.0
2016-May-20 18:31N 52°28' E 004°36'0 0.0
2016-May-20 17:31N 52°28' E 004°36'0 0.0
2016-May-20 16:31N 52°28' E 004°36'0 0.0
2016-May-20 15:31N 52°28' E 004°36'0 0.0
2016-May-20 14:31N 52°28' E 004°36'0 0.0
2016-May-20 13:31N 52°28' E 004°36'0 0.0
2016-May-20 12:31N 52°28' E 004°36'0 0.0
2016-May-20 11:31N 52°28' E 004°36'0 0.1
2016-May-20 10:31N 52°28' E 004°36'0 0.0
2016-May-20 09:31N 52°28' E 004°36'0 0.0
2016-May-20 08:31N 52°28' E 004°36'0 0.0
2016-May-20 07:31N 52°28' E 004°36'0 0.0
2016-May-20 06:31N 52°28' E 004°36'0 0.0
2016-May-20 05:31N 52°28' E 004°36'0 0.0
2016-May-20 04:31N 52°28' E 004°36'0 0.0
2016-May-20 03:31N 52°28' E 004°36'0 0.0
2016-May-20 02:31N 52°28' E 004°36'3 3.3
2016-May-20 01:33N 52°28' E 004°31'1111.5
2016-May-20 00:33N 52°27' E 004°12'1212.0
2016-May-19 23:33N 52°18' E 003°59'1211.9
2016-May-19 22:33N 52°07' E 003°55'1010.0
2016-May-19 21:33N 51°59' E 004°05'1212.5
2016-May-19 20:33N 51°51' E 004°21'1111.0
2016-May-19 19:33N 51°48' E 004°38'1 0.7
2016-May-19 18:31N 51°47' E 004°38'0 0.0
2016-May-19 17:31N 51°47' E 004°38'0 0.0
2016-May-19 16:31N 51°47' E 004°38'0 0.0
2016-May-19 15:25N 51°47' E 004°38'0 0.0
2016-May-19 14:31N 51°47' E 004°38'0 0.0
2016-May-19 13:31N 51°47' E 004°38'0 0.0
2016-May-19 12:25N 51°47' E 004°38'0 0.0
2016-May-19 11:28N 51°47' E 004°38'0 0.0
2016-May-19 10:31N 51°47' E 004°38'0 0.0
2016-May-19 09:31N 51°47' E 004°38'0 0.0
2016-May-19 08:31N 51°47' E 004°38'0 0.0
2016-May-19 07:28N 51°47' E 004°38'0 0.0
2016-May-19 06:31N 51°47' E 004°38'0 0.0
2016-May-19 05:31N 51°47' E 004°38'0 0.0
2016-May-19 04:31N 51°47' E 004°38'0 0.0
2016-May-19 03:31N 51°47' E 004°38'0 0.0
2016-May-19 02:31N 51°47' E 004°38'0 0.0
2016-May-19 01:31N 51°47' E 004°38'0 0.0
2016-May-19 00:28N 51°47' E 004°38'0 0.0
2016-May-18 23:31N 51°47' E 004°38'0 0.0
2016-May-18 22:31N 51°47' E 004°38'0 0.0
2016-May-18 21:31N 51°47' E 004°38'0 0.0
2016-May-18 20:31N 51°47' E 004°38'0 0.0
2016-May-18 19:31N 51°47' E 004°38'0 0.0
2016-May-18 18:31N 51°47' E 004°38'0 0.0
2016-May-18 17:31N 51°47' E 004°38'0 0.0
2016-May-18 16:31N 51°47' E 004°38'0 0.0
2016-May-18 15:31N 51°47' E 004°38'0 0.0
2016-May-18 14:31N 51°47' E 004°38'0 0.0
2016-May-18 13:28N 51°47' E 004°38'0 0.0
2016-May-18 12:31N 51°47' E 004°38'0 0.0
2016-May-18 11:28N 51°47' E 004°38'0 0.0
2016-May-18 10:31N 51°47' E 004°38'0 0.0
2016-May-18 09:31N 51°47' E 004°38'0 0.0
2016-May-18 08:28N 51°47' E 004°38'0 0.0
2016-May-18 07:31N 51°47' E 004°38'0 0.0
2016-May-18 06:28N 51°47' E 004°38'0 0.0
2016-May-18 05:31N 51°47' E 004°38'0 0.0
2016-May-18 04:31N 51°47' E 004°38'0 0.0
2016-May-18 03:31N 51°47' E 004°38'0 0.0
2016-May-18 02:31N 51°47' E 004°38'0 0.0
2016-May-18 01:31N 51°47' E 004°38'0 0.0
2016-May-18 00:31N 51°47' E 004°38'3 3.0
2016-May-17 23:33N 51°49' E 004°34'9 9.1
2016-May-17 22:33N 51°52' E 004°20'9 8.8
2016-May-17 21:33N 51°57' E 004°09'9 9.4
2016-May-17 20:33N 51°60' E 003°55'8 8.1
2016-May-17 19:33N 52°06' E 003°46'1211.6
2016-May-17 18:33N 52°18' E 003°48'1211.9
2016-May-17 17:33N 52°30' E 003°51'79 9.9
2016-May-17 09:32N 53°34' E 005°07'1111.4
2016-May-17 08:33N 53°38' E 005°25'1110.7
2016-May-17 07:33N 53°42' E 005°42'1010.0
2016-May-17 06:33N 53°45' E 005°58'9 9.4
2016-May-17 05:33N 53°47' E 006°13'9 8.8
2016-May-17 04:33N 53°50' E 006°28'9 8.6
2016-May-17 03:33N 53°52' E 006°42'9 9.0
2016-May-17 02:33N 53°54' E 006°56'10 9.6
2016-May-17 01:33N 53°57' E 007°12'1010.5
2016-May-17 00:33N 53°59' E 007°30'1110.9
2016-May-16 23:33N 54°01' E 007°48'1111.2
2016-May-16 22:33N 54°01' E 008°07'1111.4
2016-May-16 21:33N 53°59' E 008°26'10 9.8
2016-May-16 20:33N 53°55' E 008°41'8 7.6
2016-May-16 19:33N 53°51' E 008°52'8 7.9
2016-May-16 18:33N 53°53' E 009°05'5 4.9
2016-May-16 17:33N 53°55' E 009°12'8 8.5
2016-May-16 16:33N 54°03' E 009°18'27 6.6
2016-May-16 12:31N 54°22' E 009°50'6 6.0
2016-May-16 11:33N 54°21' E 010°00'5 5.0
2016-May-16 10:33N 54°22' E 010°09'6 5.9
2016-May-16 09:33N 54°27' E 010°14'10 9.7
2016-May-16 08:33N 54°32' E 010°28'10 9.7
2016-May-16 07:33N 54°35' E 010°44'9 9.0
2016-May-16 06:33N 54°36' E 010°59'8 7.8
2016-May-16 05:33N 54°35' E 011°13'7 7.5
2016-May-16 04:33N 54°32' E 011°24'8 7.8
2016-May-16 03:33N 54°29' E 011°37'9 8.7
2016-May-16 02:33N 54°27' E 011°51'9 8.8
2016-May-16 01:33N 54°27' E 012°06'12 9.2
2016-May-16 00:16N 54°37' E 012°16'710.2
2016-May-15 23:33N 54°41' E 012°27'41 9.4
2016-May-15 19:10N 54°58' E 013°33'6 9.3
2016-May-15 18:33N 54°60' E 013°42'9 9.3
2016-May-15 17:33N 55°03' E 013°57'  
Track history (hours):
 
Tides and Currents Weather Stations Pressure Air Temp Water Temp Dewpoint Dewpoint Depression Visibility Wind Speed Wind Dir Waves Ship Positions

Jolyn

Last reported at 2016-May-25 17:33 UTC. Time now 2016-May-30 04:57 UTC.
Position N 55°54' E 015°07'.

Length 89 m; draft 3.8 m.

Type: Cargo ship. MMSI: 306813000.

Date/timePositionNaut miles runAvg speedWind from/ knotsBaromVisibWave heightAir tempDewpointWater temp
2016-May-25 17:33N 55°54' E 015°07'1211.1
2016-May-25 16:30N 55°56' E 014°47'9 6.8
2016-May-25 15:11N 56°02' E 014°35'0 0.1
2016-May-25 14:33N 56°02' E 014°35'0 0.0
2016-May-25 13:27N 56°02' E 014°35'0 0.0
2016-May-25 11:27N 56°02' E 014°35'0 0.0
2016-May-25 10:33N 56°02' E 014°35'0 0.0
2016-May-25 09:33N 56°02' E 014°35'0 0.0
2016-May-25 08:30N 56°02' E 014°35'0 0.0
2016-May-25 07:27N 56°02' E 014°35'0 0.0
2016-May-25 06:21N 56°02' E 014°35'0 0.0
2016-May-25 05:27N 56°02' E 014°35'4 4.0
2016-May-25 04:33N 55°58' E 014°35'6 6.2
2016-May-25 03:33N 55°53' E 014°40'6 6.4
2016-May-25 02:33N 55°46' E 014°39'7 6.9
2016-May-25 01:33N 55°40' E 014°39'7 6.7
2016-May-25 00:33N 55°33' E 014°39'7 6.9
2016-May-24 23:33N 55°26' E 014°38'7 6.8
2016-May-24 22:33N 55°20' E 014°32'7 6.9
2016-May-24 21:33N 55°15' E 014°25'7 7.0
2016-May-24 20:33N 55°09' E 014°17'7 6.8
2016-May-24 19:33N 55°03' E 014°11'7 7.1
2016-May-24 18:33N 54°57' E 014°05'10 9.7
2016-May-24 17:33N 54°49' E 013°56'1010.2
2016-May-24 16:33N 54°39' E 013°57'1110.9
2016-May-24 15:33N 54°28' E 014°01'2210.6
2016-May-24 13:29N 54°08' E 014°15'1010.7
2016-May-24 12:33N 53°58' E 014°16'8 7.9
2016-May-24 11:34N 53°50' E 014°18'1010.4
2016-May-24 10:33N 53°42' E 014°29'10 9.9
2016-May-24 09:33N 53°33' E 014°37'7 3.5
2016-May-24 07:32N 53°26' E 014°35'0 0.0
2016-May-24 06:32N 53°26' E 014°35'0 0.0
2016-May-24 05:32N 53°26' E 014°35'0 0.0
2016-May-24 04:32N 53°26' E 014°35'0 0.0
2016-May-24 03:32N 53°26' E 014°35'0 0.0
2016-May-24 02:32N 53°26' E 014°35'0 0.0
2016-May-24 01:32N 53°26' E 014°35'0 0.0
2016-May-24 00:32N 53°26' E 014°35'0 0.0
2016-May-23 23:32N 53°26' E 014°35'0 0.0
2016-May-23 22:32N 53°26' E 014°35'0 0.0
2016-May-23 21:32N 53°26' E 014°35'0 0.0
2016-May-23 20:32N 53°26' E 014°35'0 0.0
2016-May-23 19:32N 53°26' E 014°35'0 0.0
2016-May-23 18:32N 53°26' E 014°35'0 0.0
2016-May-23 17:32N 53°26' E 014°35'0 0.0
2016-May-23 16:32N 53°26' E 014°35'1 0.9
2016-May-23 15:33N 53°27' E 014°36'8 8.1
2016-May-23 14:33N 53°35' E 014°36'10 9.6
2016-May-23 13:33N 53°43' E 014°27'10 9.7
2016-May-23 12:33N 53°51' E 014°17'8 8.0
2016-May-23 11:33N 53°59' E 014°15'66 9.1
2016-May-23 04:22N 54°42' E 012°51'1110.1
2016-May-23 03:15N 54°37' E 012°33'710.0
2016-May-23 02:33N 54°33' E 012°23'10 9.6
2016-May-23 01:33N 54°26' E 012°12'1010.0
2016-May-23 00:33N 54°25' E 011°55'1010.0
2016-May-22 23:33N 54°27' E 011°38'10 9.9
2016-May-22 22:33N 54°31' E 011°23'10 9.9
2016-May-22 21:33N 54°35' E 011°07'1010.4
2016-May-22 20:33N 54°33' E 010°49'1110.9
2016-May-22 19:33N 54°31' E 010°30'1010.3
2016-May-22 18:33N 54°27' E 010°15'6 6.0
2016-May-22 17:33N 54°22' E 010°09'7 6.8
2016-May-22 16:33N 54°20' E 009°57'22 7.5
2016-May-22 13:33N 54°09' E 009°23'8 8.1
2016-May-22 12:34N 54°02' E 009°18'6 6.0
2016-May-22 11:33N 53°57' E 009°14'2 2.5
2016-May-22 10:34N 53°55' E 009°11'2 1.9
2016-May-22 09:33N 53°54' E 009°08'8 8.4
2016-May-22 08:33N 53°51' E 008°55'8 8.1
2016-May-22 07:33N 53°53' E 008°42'8 8.1
2016-May-22 06:34N 53°58' E 008°31'8 8.3
2016-May-22 05:33N 53°59' E 008°17'1010.2
2016-May-22 04:33N 53°58' E 008°00'9 9.1
2016-May-22 03:33N 53°56' E 007°45'9 8.6
2016-May-22 02:33N 53°54' E 007°31'8 8.4
2016-May-22 01:33N 53°52' E 007°17'8 8.5
2016-May-22 00:33N 53°50' E 007°03'9 8.8
2016-May-21 23:33N 53°48' E 006°49'9 9.3
2016-May-21 22:33N 53°45' E 006°33'10 9.7
2016-May-21 21:33N 53°43' E 006°17'1010.4
2016-May-21 20:33N 53°40' E 006°01'1010.4
2016-May-21 19:33N 53°37' E 005°44'1010.4
2016-May-21 18:33N 53°34' E 005°27'1111.1
2016-May-21 17:32N 53°30' E 005°09'3411.1
2016-May-21 14:31N 53°07' E 004°29'1110.8
2016-May-21 13:32N 52°57' E 004°21'18 8.8
2016-May-21 11:29N 52°40' E 004°13'9 9.9
2016-May-21 10:33N 52°33' E 004°23'9 8.9
2016-May-21 09:33N 52°28' E 004°35'1 0.5
2016-May-21 08:31N 52°28' E 004°36'0 0.0
2016-May-21 07:31N 52°28' E 004°36'0 0.0
2016-May-21 06:31N 52°28' E 004°36'0 0.0
2016-May-21 05:31N 52°28' E 004°36'0 0.0
2016-May-21 04:31N 52°28' E 004°36'0 0.0
2016-May-21 03:31N 52°28' E 004°36'0 0.0
2016-May-21 02:31N 52°28' E 004°36'0 0.0
2016-May-21 01:31N 52°28' E 004°36'0 0.0
2016-May-20 23:31N 52°28' E 004°36'0 0.0
2016-May-20 21:31N 52°28' E 004°36'0 0.0
2016-May-20 20:31N 52°28' E 004°36'0 0.0
2016-May-20 19:31N 52°28' E 004°36'0 0.0
2016-May-20 18:31N 52°28' E 004°36'0 0.0
2016-May-20 17:31N 52°28' E 004°36'0 0.0
2016-May-20 16:31N 52°28' E 004°36'0 0.0
2016-May-20 15:31N 52°28' E 004°36'0 0.0
2016-May-20 14:31N 52°28' E 004°36'0 0.0
2016-May-20 13:31N 52°28' E 004°36'0 0.0
2016-May-20 12:31N 52°28' E 004°36'0 0.0
2016-May-20 11:31N 52°28' E 004°36'0 0.1
2016-May-20 10:31N 52°28' E 004°36'0 0.0
2016-May-20 09:31N 52°28' E 004°36'0 0.0
2016-May-20 08:31N 52°28' E 004°36'0 0.0
2016-May-20 07:31N 52°28' E 004°36'0 0.0
2016-May-20 06:31N 52°28' E 004°36'0 0.0
2016-May-20 05:31N 52°28' E 004°36'0 0.0
2016-May-20 04:31N 52°28' E 004°36'0 0.0
2016-May-20 03:31N 52°28' E 004°36'0 0.0
2016-May-20 02:31N 52°28' E 004°36'3 3.3
2016-May-20 01:33N 52°28' E 004°31'1111.5
2016-May-20 00:33N 52°27' E 004°12'1212.0
2016-May-19 23:33N 52°18' E 003°59'1211.9
2016-May-19 22:33N 52°07' E 003°55'1010.0
2016-May-19 21:33N 51°59' E 004°05'1212.5
2016-May-19 20:33N 51°51' E 004°21'1111.0
2016-May-19 19:33N 51°48' E 004°38'1 0.7
2016-May-19 18:31N 51°47' E 004°38'0 0.0
2016-May-19 17:31N 51°47' E 004°38'0 0.0
2016-May-19 16:31N 51°47' E 004°38'0 0.0
2016-May-19 15:25N 51°47' E 004°38'0 0.0
2016-May-19 14:31N 51°47' E 004°38'0 0.0
2016-May-19 13:31N 51°47' E 004°38'0 0.0
2016-May-19 12:25N 51°47' E 004°38'0 0.0
2016-May-19 11:28N 51°47' E 004°38'0 0.0
2016-May-19 10:31N 51°47' E 004°38'0 0.0
2016-May-19 09:31N 51°47' E 004°38'0 0.0
2016-May-19 08:31N 51°47' E 004°38'0 0.0
2016-May-19 07:28N 51°47' E 004°38'0 0.0
2016-May-19 06:31N 51°47' E 004°38'0 0.0
2016-May-19 05:31N 51°47' E 004°38'0 0.0
2016-May-19 04:31N 51°47' E 004°38'0 0.0
2016-May-19 03:31N 51°47' E 004°38'0 0.0
2016-May-19 02:31N 51°47' E 004°38'0 0.0
2016-May-19 01:31N 51°47' E 004°38'0 0.0
2016-May-19 00:28N 51°47' E 004°38'0 0.0
2016-May-18 23:31N 51°47' E 004°38'0 0.0
2016-May-18 22:31N 51°47' E 004°38'0 0.0
2016-May-18 21:31N 51°47' E 004°38'0 0.0
2016-May-18 20:31N 51°47' E 004°38'0 0.0
2016-May-18 19:31N 51°47' E 004°38'0 0.0
2016-May-18 18:31N 51°47' E 004°38'0 0.0
2016-May-18 17:31N 51°47' E 004°38'0 0.0
2016-May-18 16:31N 51°47' E 004°38'0 0.0
2016-May-18 15:31N 51°47' E 004°38'0 0.0
2016-May-18 14:31N 51°47' E 004°38'0 0.0
2016-May-18 13:28N 51°47' E 004°38'0 0.0
2016-May-18 12:31N 51°47' E 004°38'0 0.0
2016-May-18 11:28N 51°47' E 004°38'0 0.0
2016-May-18 10:31N 51°47' E 004°38'0 0.0
2016-May-18 09:31N 51°47' E 004°38'0 0.0
2016-May-18 08:28N 51°47' E 004°38'0 0.0
2016-May-18 07:31N 51°47' E 004°38'0 0.0
2016-May-18 06:28N 51°47' E 004°38'0 0.0
2016-May-18 05:31N 51°47' E 004°38'0 0.0
2016-May-18 04:31N 51°47' E 004°38'0 0.0
2016-May-18 03:31N 51°47' E 004°38'0 0.0
2016-May-18 02:31N 51°47' E 004°38'0 0.0
2016-May-18 01:31N 51°47' E 004°38'0 0.0
2016-May-18 00:31N 51°47' E 004°38'3 3.0
2016-May-17 23:33N 51°49' E 004°34'9 9.1
2016-May-17 22:33N 51°52' E 004°20'9 8.8
2016-May-17 21:33N 51°57' E 004°09'9 9.4
2016-May-17 20:33N 51°60' E 003°55'8 8.1
2016-May-17 19:33N 52°06' E 003°46'1211.6
2016-May-17 18:33N 52°18' E 003°48'1211.9
2016-May-17 17:33N 52°30' E 003°51'79 9.9
2016-May-17 09:32N 53°34' E 005°07'1111.4
2016-May-17 08:33N 53°38' E 005°25'1110.7
2016-May-17 07:33N 53°42' E 005°42'1010.0
2016-May-17 06:33N 53°45' E 005°58'9 9.4
2016-May-17 05:33N 53°47' E 006°13'9 8.8
2016-May-17 04:33N 53°50' E 006°28'9 8.6
2016-May-17 03:33N 53°52' E 006°42'9 9.0
2016-May-17 02:33N 53°54' E 006°56'10 9.6
2016-May-17 01:33N 53°57' E 007°12'1010.5
2016-May-17 00:33N 53°59' E 007°30'1110.9
2016-May-16 23:33N 54°01' E 007°48'1111.2
2016-May-16 22:33N 54°01' E 008°07'1111.4
2016-May-16 21:33N 53°59' E 008°26'10 9.8
2016-May-16 20:33N 53°55' E 008°41'8 7.6
2016-May-16 19:33N 53°51' E 008°52'8 7.9
2016-May-16 18:33N 53°53' E 009°05'5 4.9
2016-May-16 17:33N 53°55' E 009°12'8 8.5
2016-May-16 16:33N 54°03' E 009°18'27 6.6
2016-May-16 12:31N 54°22' E 009°50'6 6.0
2016-May-16 11:33N 54°21' E 010°00'5 5.0
2016-May-16 10:33N 54°22' E 010°09'6 5.9
2016-May-16 09:33N 54°27' E 010°14'10 9.7
2016-May-16 08:33N 54°32' E 010°28'10 9.7
2016-May-16 07:33N 54°35' E 010°44'9 9.0
2016-May-16 06:33N 54°36' E 010°59'8 7.8
2016-May-16 05:33N 54°35' E 011°13'7 7.5
2016-May-16 04:33N 54°32' E 011°24'8 7.8
2016-May-16 03:33N 54°29' E 011°37'9 8.7
2016-May-16 02:33N 54°27' E 011°51'9 8.8
2016-May-16 01:33N 54°27' E 012°06'12 9.2
2016-May-16 00:16N 54°37' E 012°16'710.2
2016-May-15 23:33N 54°41' E 012°27'41 9.4
2016-May-15 19:10N 54°58' E 013°33'6 9.3
2016-May-15 18:33N 54°60' E 013°42'9 9.3
2016-May-15 17:33N 55°03' E 013°57'  

Dump ship's entire track history